Time;durP1;ratioP1;P1;durP2;ratioP2;P2;SDS_P1;SDS_P2;PMS_P1;PMS_P2;Temp;Humidity;BMP_temperature;BMP_pressure;BME280_temperature;BME280_humidity;BME280_pressure;Samples;Min_cycle;Max_cycle;Signal;HPM_P1;HPM_P2
2023/07/13 00:01:10;;;;;;;7.70;7.10;;;17.90;99.90;;;;;;4996639;28;20444;-71
2023/07/13 00:03:40;;;;;;;7.27;6.40;;;17.90;99.90;;;;;;4997139;28;20441;-71
2023/07/13 00:06:09;;;;;;;7.10;6.50;;;17.90;99.90;;;;;;4996959;28;20417;-71
2023/07/13 00:08:39;;;;;;;6.70;6.20;;;17.90;99.90;;;;;;4997114;28;20464;-71
2023/07/13 00:11:10;;;;;;;7.40;6.80;;;17.80;99.90;;;;;;4996694;28;20523;-71
2023/07/13 00:13:39;;;;;;;7.33;6.63;;;17.80;99.90;;;;;;4996432;28;20837;-71
2023/07/13 00:16:09;;;;;;;7.40;6.77;;;17.70;99.90;;;;;;4996301;28;20429;-71
2023/07/13 00:18:38;;;;;;;9.30;7.40;;;17.70;99.90;;;;;;4994906;28;20457;-71
2023/07/13 00:21:07;;;;;;;7.57;6.83;;;17.70;99.90;;;;;;4996179;28;20834;-71
2023/07/13 00:23:36;;;;;;;8.30;7.50;;;17.60;99.90;;;;;;4994981;28;20455;-70
2023/07/13 00:26:06;;;;;;;7.77;6.97;;;17.60;99.90;;;;;;4996177;28;20441;-70
2023/07/13 00:28:36;;;;;;;8.27;7.57;;;17.60;99.90;;;;;;4996086;28;20444;-70
2023/07/13 00:31:04;;;;;;;7.87;7.20;;;17.60;99.90;;;;;;4994752;28;21040;-70
2023/07/13 00:33:36;;;;;;;10.87;7.77;;;17.50;99.90;;;;;;4996333;28;20479;-71
2023/07/13 00:36:05;;;;;;;9.23;8.40;;;17.50;99.90;;;;;;4994675;28;20495;-71
2023/07/13 00:38:33;;;;;;;8.67;7.90;;;17.50;99.90;;;;;;4995859;28;20854;-71
2023/07/13 00:41:03;;;;;;;8.40;7.70;;;17.50;99.90;;;;;;4994565;28;20472;-70
2023/07/13 00:43:32;;;;;;;8.83;8.03;;;17.40;99.90;;;;;;4995828;28;20444;-70
2023/07/13 00:46:24;;;;;;;9.33;8.63;;;17.40;99.90;;;;;;4995813;28;20817;-71
2023/07/13 00:48:54;;;;;;;9.70;8.83;;;17.40;99.90;;;;;;4991722;28;20445;-71
2023/07/13 00:51:29;;;;;;;9.33;8.63;;;17.40;99.90;;;;;;4994469;28;20437;-71
2023/07/13 00:54:01;;;;;;;9.77;8.97;;;17.40;99.90;;;;;;4994402;28;20539;-71
2023/07/13 00:56:29;;;;;;;11.20;10.30;;;17.30;99.90;;;;;;4996119;28;20856;-71
2023/07/13 00:59:02;;;;;;;9.80;9.07;;;17.30;99.90;;;;;;4994376;28;20494;-72
2023/07/13 01:01:32;;;;;;;11.13;10.20;;;17.30;99.90;;;;;;4995002;28;20865;-71
2023/07/13 01:04:01;;;;;;;9.93;9.23;;;17.20;99.90;;;;;;4995498;28;20414;-71
2023/07/13 01:06:30;;;;;;;11.70;10.63;;;17.20;99.90;;;;;;4994598;28;20460;-71
2023/07/13 01:09:00;;;;;;;11.23;10.13;;;17.20;99.90;;;;;;4995521;28;20536;-71
2023/07/13 01:11:28;;;;;;;9.60;8.90;;;17.10;99.90;;;;;;4995206;28;20472;-71
2023/07/13 01:13:57;;;;;;;10.57;9.57;;;17.10;99.90;;;;;;4995436;28;20472;-71
2023/07/13 01:16:27;;;;;;;10.77;9.77;;;17.10;99.90;;;;;;4995476;28;20437;-71
2023/07/13 01:18:58;;;;;;;12.47;10.30;;;17.10;99.90;;;;;;4994320;28;20443;-71
2023/07/13 01:21:31;;;;;;;11.60;10.20;;;17.10;99.90;;;;;;4993784;28;20471;-70
2023/07/13 01:24:00;;;;;;;12.10;11.00;;;17.00;99.90;;;;;;4995246;28;20429;-71
2023/07/13 01:26:28;;;;;;;11.13;10.17;;;17.00;99.90;;;;;;4995232;28;20531;-71
2023/07/13 01:28:57;;;;;;;11.20;10.13;;;17.00;99.90;;;;;;4993795;28;20447;-71
2023/07/13 01:31:25;;;;;;;10.63;9.63;;;17.00;99.90;;;;;;4994016;28;20470;-71
2023/07/13 01:33:54;;;;;;;10.00;9.23;;;17.00;99.90;;;;;;4993709;28;20840;-71
2023/07/13 01:36:22;;;;;;;9.97;9.17;;;17.00;99.90;;;;;;4995129;28;20865;-70
2023/07/13 01:38:52;;;;;;;10.77;9.77;;;16.90;99.90;;;;;;4997526;28;20517;-70
2023/07/13 01:41:20;;;;;;;11.00;9.97;;;16.90;99.90;;;;;;4996436;28;20555;-71
2023/07/13 01:43:48;;;;;;;11.20;10.10;;;16.90;99.90;;;;;;4995717;28;20472;-70
2023/07/13 01:46:18;;;;;;;10.30;9.50;;;16.90;99.90;;;;;;4994976;28;20431;-71
2023/07/13 01:48:51;;;;;;;11.40;10.30;;;16.90;99.90;;;;;;4993013;28;20471;-71
2023/07/13 01:51:20;;;;;;;10.10;9.20;;;16.90;99.90;;;;;;4995000;28;20440;-71
2023/07/13 01:53:49;;;;;;;11.20;9.43;;;16.90;99.90;;;;;;4994600;28;20498;-70
2023/07/13 01:56:19;;;;;;;9.63;8.83;;;16.90;99.90;;;;;;4993258;28;20427;-71
2023/07/13 01:58:48;;;;;;;10.10;9.30;;;16.90;99.90;;;;;;4993224;28;20869;-71
2023/07/13 02:01:17;;;;;;;10.10;9.30;;;16.90;99.90;;;;;;4993171;28;20564;-70
2023/07/13 02:03:46;;;;;;;10.33;9.33;;;16.80;99.90;;;;;;4993399;28;20451;-70
2023/07/13 02:06:14;;;;;;;10.23;9.33;;;16.80;99.90;;;;;;4994551;28;20477;-71
2023/07/13 02:08:43;;;;;;;11.33;10.33;;;16.80;99.90;;;;;;4992939;28;20427;-71
2023/07/13 02:11:11;;;;;;;11.13;10.23;;;16.80;99.90;;;;;;4993036;28;20545;-70
2023/07/13 02:13:41;;;;;;;11.33;8.87;;;16.80;99.90;;;;;;4992917;28;20769;-71
2023/07/13 02:16:09;;;;;;;10.70;9.73;;;16.80;99.90;;;;;;4994350;28;20440;-70
2023/07/13 02:18:38;;;;;;;10.60;9.80;;;16.80;99.90;;;;;;4994086;28;20451;-70
2023/07/13 02:21:06;;;;;;;11.33;10.33;;;16.70;99.90;;;;;;4993032;28;20472;-70
2023/07/13 02:23:34;;;;;;;11.00;10.10;;;16.80;99.90;;;;;;4994106;28;20464;-71
2023/07/13 02:26:04;;;;;;;10.17;9.20;;;16.70;99.90;;;;;;4992737;28;20448;-70
2023/07/13 02:28:32;;;;;;;12.20;9.20;;;16.70;99.90;;;;;;4994366;28;20424;-70
2023/07/13 02:31:07;;;;;;;12.47;11.40;;;16.70;99.90;;;;;;4992709;28;20787;-70
2023/07/13 02:33:36;;;;;;;11.07;10.17;;;16.60;99.90;;;;;;4993965;28;20391;-70
2023/07/13 02:36:05;;;;;;;11.70;10.60;;;16.60;99.90;;;;;;4994227;28;20411;-70
2023/07/13 02:38:34;;;;;;;13.60;10.90;;;16.60;99.90;;;;;;4994060;28;21006;-70
2023/07/13 02:41:03;;;;;;;11.27;10.33;;;16.60;99.90;;;;;;4992916;28;20450;-70
2023/07/13 02:43:31;;;;;;;10.20;9.27;;;16.60;99.90;;;;;;4993888;28;20419;-70
2023/07/13 02:46:03;;;;;;;11.47;10.20;;;16.60;99.90;;;;;;4994473;28;20418;-70
2023/07/13 02:48:33;;;;;;;9.70;8.90;;;16.60;99.90;;;;;;4993268;28;20982;-71
2023/07/13 02:51:02;;;;;;;10.00;9.17;;;16.50;99.90;;;;;;4994107;28;20440;-71
2023/07/13 02:53:30;;;;;;;11.90;9.67;;;16.50;99.90;;;;;;4992502;28;20449;-71
2023/07/13 02:55:58;;;;;;;12.60;9.53;;;16.50;99.90;;;;;;4992571;28;20458;-70
2023/07/13 02:58:26;;;;;;;9.43;8.63;;;16.50;99.90;;;;;;4992580;28;20436;-71
2023/07/13 03:00:57;;;;;;;9.93;8.97;;;16.50;99.90;;;;;;4992516;28;20681;-70
2023/07/13 03:03:27;;;;;;;10.90;8.03;;;16.50;99.90;;;;;;4996766;28;20560;-70
2023/07/13 03:06:03;;;;;;;9.83;8.80;;;16.50;99.90;;;;;;4996373;28;20548;-70
2023/07/13 03:08:36;;;;;;;9.60;8.67;;;16.40;99.90;;;;;;4996289;28;20956;-71
2023/07/13 03:11:07;;;;;;;8.70;7.90;;;16.40;99.90;;;;;;4996235;28;20435;-71
2023/07/13 03:13:38;;;;;;;9.30;8.27;;;16.40;99.90;;;;;;4996326;28;20858;-71
2023/07/13 03:16:07;;;;;;;9.90;7.87;;;16.40;99.90;;;;;;4996156;28;20503;-70
2023/07/13 03:18:36;;;;;;;7.90;6.50;;;16.40;99.90;;;;;;4996092;28;20862;-70
2023/07/13 03:21:09;;;;;;;7.53;5.83;;;16.40;99.90;;;;;;4996182;28;20918;-70
2023/07/13 03:23:37;;;;;;;8.60;5.97;;;16.40;99.90;;;;;;4997281;28;20841;-70
2023/07/13 03:26:07;;;;;;;7.23;6.00;;;16.40;99.90;;;;;;4995916;28;20463;-70
2023/07/13 03:28:36;;;;;;;9.17;5.30;;;16.40;99.90;;;;;;4997311;28;20787;-71
2023/07/13 03:31:08;;;;;;;7.47;5.47;;;16.40;99.90;;;;;;4996213;28;20495;-71
2023/07/13 03:33:37;;;;;;;6.90;4.90;;;16.40;99.90;;;;;;4995908;28;20518;-70
2023/07/13 03:36:10;;;;;;;8.23;4.90;;;16.40;99.90;;;;;;4995860;28;20454;-70
2023/07/13 03:38:39;;;;;;;9.13;5.30;;;16.40;99.90;;;;;;4995789;28;20415;-71
2023/07/13 03:41:07;;;;;;;11.03;5.27;;;16.40;99.90;;;;;;4995931;28;20473;-71
2023/07/13 03:43:35;;;;;;;11.73;5.20;;;16.40;99.90;;;;;;4995925;28;20456;-71
2023/07/13 03:46:04;;;;;;;10.13;5.13;;;16.40;99.90;;;;;;4996588;28;20492;-71
2023/07/13 03:48:32;;;;;;;8.50;5.03;;;16.40;99.90;;;;;;4995689;28;20419;-70
2023/07/13 03:51:01;;;;;;;8.20;4.40;;;16.40;99.90;;;;;;4995887;28;20544;-72
2023/07/13 03:53:31;;;;;;;8.13;5.13;;;16.40;99.90;;;;;;4996990;28;20444;-71
2023/07/13 03:56:00;;;;;;;8.03;4.47;;;16.40;99.90;;;;;;4995511;28;20420;-70
2023/07/13 03:58:32;;;;;;;6.17;4.60;;;16.40;99.90;;;;;;4995434;28;20819;-71
2023/07/13 04:01:11;;;;;;;9.33;4.60;;;16.40;99.90;;;;;;4995498;28;20476;-71
2023/07/13 04:03:40;;;;;;;9.77;4.80;;;16.50;99.90;;;;;;4995913;28;20452;-71
2023/07/13 04:06:15;;;;;;;11.27;5.23;;;16.40;99.90;;;;;;4996842;28;20451;-71
2023/07/13 04:08:46;;;;;;;9.53;4.57;;;16.50;99.90;;;;;;4996797;28;20462;-70
2023/07/13 04:11:14;;;;;;;8.00;4.10;;;16.50;99.90;;;;;;4995701;28;20448;-71
2023/07/13 04:13:42;;;;;;;10.37;4.30;;;16.50;99.90;;;;;;4996206;28;20441;-71
2023/07/13 04:16:11;;;;;;;8.30;3.50;;;16.50;99.90;;;;;;4996589;28;20500;-71
2023/07/13 04:18:39;;;;;;;7.90;4.30;;;16.50;99.90;;;;;;4996800;28;20540;-71
2023/07/13 04:21:08;;;;;;;9.77;4.07;;;16.50;99.90;;;;;;4996723;28;20441;-71
2023/07/13 04:23:36;;;;;;;7.43;4.50;;;16.60;99.90;;;;;;4996333;28;20429;-71
2023/07/13 04:26:06;;;;;;;8.03;3.80;;;16.60;99.90;;;;;;4995232;28;20486;-71
2023/07/13 04:28:35;;;;;;;8.47;3.83;;;16.60;99.90;;;;;;4996821;28;20411;-71
2023/07/13 04:31:04;;;;;;;6.60;4.30;;;16.60;99.90;;;;;;4996106;28;20419;-71
2023/07/13 04:33:32;;;;;;;8.40;5.10;;;16.50;99.90;;;;;;4996907;28;20464;-72
2023/07/13 04:36:01;;;;;;;8.27;4.00;;;16.60;99.90;;;;;;4999947;28;20539;-71
2023/07/13 04:38:33;;;;;;;9.87;4.63;;;16.60;99.90;;;;;;4996548;28;20444;-71
2023/07/13 04:41:07;;;;;;;12.00;4.43;;;16.60;99.90;;;;;;4999371;28;20781;-72
2023/07/13 04:43:36;;;;;;;10.53;5.00;;;16.60;99.90;;;;;;5001244;28;20425;-72
2023/07/13 04:46:07;;;;;;;9.97;3.87;;;16.60;99.90;;;;;;4996543;28;21123;-72
2023/07/13 04:48:37;;;;;;;6.73;3.60;;;16.70;99.90;;;;;;4997248;28;20400;-71
2023/07/13 04:51:05;;;;;;;7.30;3.87;;;16.70;99.90;;;;;;4995592;28;20465;-72
2023/07/13 04:53:34;;;;;;;11.27;4.00;;;16.70;99.90;;;;;;4996730;28;20429;-72
2023/07/13 04:56:04;;;;;;;9.10;4.43;;;16.70;99.90;;;;;;4996620;28;20440;-71
2023/07/13 04:58:35;;;;;;;12.93;4.33;;;16.70;99.90;;;;;;4996885;28;20432;-74
2023/07/13 05:01:04;;;;;;;10.20;4.20;;;16.70;99.90;;;;;;4997724;28;20429;-74
2023/07/13 05:03:33;;;;;;;8.70;5.03;;;16.70;99.90;;;;;;4996183;28;20443;-73
2023/07/13 05:06:04;;;;;;;7.93;4.40;;;16.70;99.90;;;;;;4996214;28;20792;-73
2023/07/13 05:08:33;;;;;;;7.03;3.90;;;16.70;99.90;;;;;;5000893;28;20460;-74
2023/07/13 05:11:02;;;;;;;6.23;4.37;;;16.80;99.90;;;;;;4997889;28;20605;-75
2023/07/13 05:13:30;;;;;;;8.63;3.87;;;16.80;99.90;;;;;;4998147;28;21053;-74
2023/07/13 05:16:02;;;;;;;11.00;4.30;;;16.80;99.90;;;;;;4997303;28;20522;-74
2023/07/13 05:18:32;;;;;;;8.33;4.77;;;16.80;99.90;;;;;;4998521;28;20442;-75
2023/07/13 05:21:02;;;;;;;14.90;4.67;;;16.80;99.90;;;;;;4998649;28;20435;-71
2023/07/13 05:23:31;;;;;;;8.00;4.33;;;16.80;99.90;;;;;;4996446;28;20451;-72
2023/07/13 05:26:00;;;;;;;10.23;4.77;;;16.80;99.90;;;;;;5003746;28;20418;-72
2023/07/13 05:28:29;;;;;;;7.90;4.20;;;16.80;99.90;;;;;;5000164;28;20818;-72
2023/07/13 05:31:00;;;;;;;10.87;5.10;;;16.80;99.90;;;;;;4997653;28;20461;-72
2023/07/13 05:33:29;;;;;;;6.57;4.50;;;16.80;99.90;;;;;;4998486;28;20464;-72
2023/07/13 05:35:57;;;;;;;8.37;4.83;;;16.90;99.90;;;;;;4998481;28;20476;-71
2023/07/13 05:38:26;;;;;;;14.77;4.57;;;16.90;99.90;;;;;;4997242;28;20496;-72
2023/07/13 05:40:56;;;;;;;9.57;4.73;;;17.00;99.90;;;;;;4996059;28;20460;-71
2023/07/13 05:43:26;;;;;;;10.80;4.60;;;17.00;99.90;;;;;;4997326;28;20447;-71
2023/07/13 05:45:57;;;;;;;9.13;3.93;;;17.10;99.90;;;;;;4996539;28;20403;-71
2023/07/13 05:48:27;;;;;;;8.43;4.23;;;17.20;99.90;;;;;;4996047;28;20458;-72
2023/07/13 05:50:55;;;;;;;8.77;4.87;;;17.30;99.90;;;;;;4993909;28;20896;-72
2023/07/13 05:53:24;;;;;;;8.10;4.40;;;17.40;99.90;;;;;;4995213;28;20441;-71
2023/07/13 05:55:54;;;;;;;6.80;3.90;;;17.50;99.90;;;;;;4994659;28;20430;-72
2023/07/13 05:58:24;;;;;;;7.70;4.30;;;17.60;99.90;;;;;;4996782;28;20421;-75
2023/07/13 06:01:01;;;;;;;10.73;4.73;;;17.80;99.90;;;;;;4998009;28;20467;-74
2023/07/13 06:03:32;;;;;;;11.97;5.40;;;18.00;99.90;;;;;;4998183;28;20467;-74
2023/07/13 06:06:01;;;;;;;10.70;4.57;;;18.00;99.90;;;;;;4999339;28;20415;-74
2023/07/13 06:08:30;;;;;;;11.30;4.90;;;18.20;99.90;;;;;;4997953;28;20439;-74
2023/07/13 06:11:04;;;;;;;14.50;4.70;;;18.40;99.90;;;;;;4997574;28;20472;-74
2023/07/13 06:13:35;;;;;;;11.60;4.60;;;18.60;99.90;;;;;;4998720;28;20460;-74
2023/07/13 06:16:06;;;;;;;10.83;4.83;;;18.70;99.90;;;;;;4997268;28;20449;-73
2023/07/13 06:18:37;;;;;;;8.27;3.77;;;18.80;99.90;;;;;;4998112;28;20457;-74
2023/07/13 06:21:11;;;;;;;12.10;5.50;;;18.80;99.90;;;;;;4998141;28;20429;-74
2023/07/13 06:23:40;;;;;;;8.90;4.50;;;18.80;99.90;;;;;;4995786;28;20473;-73
2023/07/13 06:26:09;;;;;;;6.60;4.33;;;18.70;99.90;;;;;;4995541;28;20856;-73
2023/07/13 06:28:39;;;;;;;11.80;4.93;;;18.80;99.90;;;;;;4996489;28;20445;-75
2023/07/13 06:31:09;;;;;;;7.83;4.17;;;18.80;99.90;;;;;;4997639;28;20454;-73
2023/07/13 06:33:40;;;;;;;10.97;3.83;;;18.80;99.90;;;;;;4997818;28;20433;-73
2023/07/13 06:36:09;;;;;;;8.17;4.20;;;19.10;99.90;;;;;;4997329;28;20531;-74
2023/07/13 06:38:38;;;;;;;8.10;4.43;;;19.30;99.90;;;;;;4997466;28;20437;-73
2023/07/13 06:41:08;;;;;;;8.03;4.57;;;19.40;99.90;;;;;;4998500;28;20781;-73
2023/07/13 06:43:38;;;;;;;8.40;4.70;;;19.60;99.90;;;;;;4997280;28;20491;-73
2023/07/13 06:46:06;;;;;;;7.27;4.20;;;19.70;99.90;;;;;;5000992;28;20536;-74
2023/07/13 06:48:35;;;;;;;7.37;4.43;;;19.80;99.90;;;;;;4997882;28;20441;-73
2023/07/13 06:51:09;;;;;;;8.47;4.37;;;19.70;99.90;;;;;;4997328;28;20445;-75
2023/07/13 06:53:39;;;;;;;9.27;5.07;;;19.70;99.90;;;;;;4996220;28;20453;-75
2023/07/13 06:56:07;;;;;;;8.87;4.77;;;19.70;99.90;;;;;;4996493;28;20445;-74
2023/07/13 06:58:36;;;;;;;9.80;4.70;;;19.80;99.90;;;;;;4997111;28;20476;-74
2023/07/13 07:01:05;;;;;;;18.97;5.40;;;19.90;99.90;;;;;;4997754;28;20448;-74
2023/07/13 07:03:37;;;;;;;12.03;5.33;;;19.90;99.90;;;;;;4997636;28;20473;-73
2023/07/13 07:06:15;;;;;;;10.37;5.07;;;20.10;99.90;;;;;;4997522;28;20922;-73
2023/07/13 07:08:44;;;;;;;7.07;4.27;;;20.20;99.90;;;;;;4997959;28;20787;-73
2023/07/13 07:11:15;;;;;;;9.70;4.60;;;20.20;99.90;;;;;;4996488;28;20437;-73
2023/07/13 07:13:43;;;;;;;11.63;5.37;;;20.20;99.90;;;;;;4997777;28;20425;-74
2023/07/13 07:16:12;;;;;;;9.43;4.43;;;20.30;99.90;;;;;;4997510;28;20440;-73
2023/07/13 07:18:41;;;;;;;7.70;4.50;;;20.40;99.90;;;;;;4997774;28;20483;-74
2023/07/13 07:21:11;;;;;;;8.80;5.00;;;20.50;99.90;;;;;;4996632;28;20439;-74
2023/07/13 07:23:41;;;;;;;12.77;4.83;;;20.50;99.90;;;;;;4997520;28;21008;-74
2023/07/13 07:26:11;;;;;;;16.60;5.47;;;20.60;99.90;;;;;;4997672;28;20421;-74
2023/07/13 07:28:39;;;;;;;9.10;4.80;;;20.60;99.90;;;;;;4996520;28;20444;-74
2023/07/13 07:31:11;;;;;;;9.53;4.60;;;20.70;99.90;;;;;;4994714;28;20806;-75
2023/07/13 07:33:43;;;;;;;7.03;4.30;;;20.70;99.90;;;;;;4996339;28;20422;-77
2023/07/13 07:36:13;;;;;;;8.07;4.13;;;20.70;99.90;;;;;;4995524;28;20437;-74
2023/07/13 07:38:44;;;;;;;8.13;4.07;;;20.80;99.90;;;;;;4994964;28;20438;-74
2023/07/13 07:41:12;;;;;;;12.00;4.73;;;20.80;99.90;;;;;;4996318;28;20515;-74
2023/07/13 07:43:44;;;;;;;5.67;4.63;;;20.90;99.90;;;;;;4995260;28;20543;-74
2023/07/13 07:46:12;;;;;;;7.30;4.60;;;20.90;99.90;;;;;;4994925;28;20476;-74
2023/07/13 07:48:41;;;;;;;7.30;4.57;;;21.00;99.90;;;;;;4996946;28;20580;-74
2023/07/13 07:51:10;;;;;;;7.73;4.27;;;21.00;99.90;;;;;;4998445;28;20467;-75
2023/07/13 07:53:40;;;;;;;7.67;4.60;;;21.10;99.90;;;;;;4998594;28;20507;-75
2023/07/13 07:56:09;;;;;;;7.40;5.10;;;21.20;99.90;;;;;;4998532;28;20444;-74
2023/07/13 07:58:41;;;;;;;5.67;3.70;;;21.20;99.90;;;;;;4999540;28;20424;-74
2023/07/13 08:01:12;;;;;;;9.67;5.00;;;21.30;99.90;;;;;;4999241;28;20851;-74
2023/07/13 08:03:43;;;;;;;5.80;3.70;;;21.30;99.90;;;;;;4998892;28;20487;-74
2023/07/13 08:06:15;;;;;;;11.53;4.87;;;21.40;99.90;;;;;;4997796;28;20440;-74
2023/07/13 08:09:05;;;;;;;5.43;4.13;;;21.50;99.90;;;;;;4998936;28;20476;-73
2023/07/13 08:11:34;;;;;;;7.60;4.37;;;21.40;99.90;;;;;;4997674;28;20436;-74
2023/07/13 08:14:05;;;;;;;6.80;3.90;;;21.30;99.90;;;;;;4998931;28;20432;-73
2023/07/13 08:16:33;;;;;;;6.47;4.00;;;21.30;99.90;;;;;;4998800;28;20441;-74
2023/07/13 08:19:04;;;;;;;7.13;4.40;;;21.20;99.90;;;;;;4998411;28;20469;-74
2023/07/13 08:21:32;;;;;;;7.17;4.33;;;21.30;99.90;;;;;;4997195;28;20456;-74
2023/07/13 08:24:00;;;;;;;8.13;5.37;;;21.30;99.90;;;;;;4998870;28;20837;-74
2023/07/13 08:26:30;;;;;;;6.43;4.80;;;21.40;99.90;;;;;;4998827;28;20464;-74
2023/07/13 08:28:58;;;;;;;6.80;4.47;;;21.50;99.90;;;;;;4998108;28;20472;-74
2023/07/13 08:31:27;;;;;;;7.40;4.80;;;21.50;99.90;;;;;;4997219;28;20445;-74
2023/07/13 08:33:56;;;;;;;7.27;5.00;;;21.60;99.90;;;;;;4998747;28;20884;-73
2023/07/13 08:36:24;;;;;;;8.63;5.00;;;21.60;99.90;;;;;;4998273;28;20846;-74
2023/07/13 08:38:53;;;;;;;10.03;7.60;;;21.70;99.90;;;;;;4998176;28;20447;-74
2023/07/13 08:41:22;;;;;;;7.13;4.43;;;21.70;99.90;;;;;;4998172;28;20469;-73
2023/07/13 08:43:57;;;;;;;7.17;5.27;;;21.70;99.90;;;;;;4997718;28;20856;-74
2023/07/13 08:46:30;;;;;;;7.23;4.97;;;21.70;99.90;;;;;;4996167;28;20421;-73
2023/07/13 08:49:00;;;;;;;6.73;5.23;;;21.60;99.90;;;;;;4996246;28;20974;-74
2023/07/13 08:51:44;;;;;;;6.93;5.13;;;21.70;99.90;;;;;;4996005;28;20499;-73
2023/07/13 08:54:21;;;;;;;5.07;4.13;;;21.70;99.90;;;;;;4996363;28;20941;-73
2023/07/13 08:56:52;;;;;;;7.50;4.53;;;21.80;99.90;;;;;;4994810;28;20523;-73
2023/07/13 08:59:25;;;;;;;6.60;4.90;;;21.80;99.90;;;;;;4995661;28;20969;-73
2023/07/13 09:02:06;;;;;;;8.23;4.60;;;21.90;99.90;;;;;;4995789;28;20421;-74
2023/07/13 09:04:42;;;;;;;6.80;4.80;;;21.90;99.90;;;;;;4994631;28;20526;-74
2023/07/13 09:07:19;;;;;;;5.47;4.07;;;22.00;99.90;;;;;;4994631;28;20452;-73
2023/07/13 09:10:06;;;;;;;9.73;5.70;;;22.10;99.90;;;;;;4995628;28;20456;-74
2023/07/13 09:12:46;;;;;;;6.73;4.10;;;22.20;99.90;;;;;;4994385;28;20981;-76
2023/07/13 09:15:31;;;;;;;5.23;3.33;;;22.10;99.90;;;;;;4995439;28;20785;-75
2023/07/13 09:18:05;;;;;;;8.60;4.30;;;22.10;99.90;;;;;;4994152;28;20459;-74
2023/07/13 09:20:36;;;;;;;6.07;4.33;;;22.10;99.90;;;;;;4995361;28;20894;-73
2023/07/13 09:23:11;;;;;;;4.80;3.30;;;22.10;99.90;;;;;;4995021;28;20468;-75
2023/07/13 09:25:39;;;;;;;4.27;3.53;;;22.10;99.90;;;;;;4996123;28;20470;-75
2023/07/13 09:28:16;;;;;;;6.57;3.40;;;22.00;99.90;;;;;;4996409;28;20436;-74
2023/07/13 09:30:51;;;;;;;3.67;3.30;;;22.00;99.90;;;;;;4995758;28;20475;-74
2023/07/13 09:33:20;;;;;;;3.70;3.17;;;22.00;99.90;;;;;;4996066;28;20431;-76
2023/07/13 09:35:48;;;;;;;8.30;3.50;;;22.00;99.90;;;;;;4996140;28;20564;-73
2023/07/13 09:38:19;;;;;;;5.80;3.40;;;22.10;99.90;;;;;;4994392;28;20495;-74
2023/07/13 09:41:02;;;;;;;6.10;3.40;;;22.10;99.90;;;;;;4994555;28;20483;-75
2023/07/13 09:43:30;;;;;;;8.97;3.77;;;22.10;99.90;;;;;;4996092;28;20935;-74
2023/07/13 09:45:59;;;;;;;4.80;3.47;;;22.10;99.90;;;;;;4994272;28;20515;-74
2023/07/13 09:48:35;;;;;;;9.10;4.20;;;22.10;99.90;;;;;;4995559;28;20445;-74
2023/07/13 09:51:13;;;;;;;8.20;3.10;;;22.20;99.90;;;;;;4994229;28;20450;-74
2023/07/13 09:53:44;;;;;;;5.83;2.80;;;22.20;99.90;;;;;;4996147;28;20455;-75
2023/07/13 09:56:21;;;;;;;4.00;3.33;;;22.20;99.90;;;;;;4994027;28;20437;-76
2023/07/13 09:58:50;;;;;;;4.90;3.63;;;22.20;99.90;;;;;;4994655;28;20854;-75
2023/07/13 10:01:32;;;;;;;5.70;3.30;;;22.30;99.90;;;;;;4996103;28;20440;-75
2023/07/13 10:04:01;;;;;;;5.53;3.10;;;22.40;99.90;;;;;;4995488;28;20793;-76
2023/07/13 10:06:29;;;;;;;6.43;3.40;;;22.40;99.90;;;;;;4995246;28;20520;-74
2023/07/13 10:08:58;;;;;;;5.90;3.03;;;22.50;99.90;;;;;;4995213;28;20471;-76
2023/07/13 10:11:30;;;;;;;4.33;2.83;;;22.50;99.90;;;;;;4994849;28;20440;-75
2023/07/13 10:14:01;;;;;;;6.50;3.73;;;22.50;99.90;;;;;;4995235;28;20436;-75
2023/07/13 10:16:34;;;;;;;7.23;2.90;;;22.40;99.90;;;;;;4994244;28;20503;-76
2023/07/13 10:19:11;;;;;;;7.60;3.43;;;22.40;99.90;;;;;;4995334;28;20483;-75
2023/07/13 10:21:49;;;;;;;5.80;3.27;;;22.50;99.90;;;;;;4995198;28;20425;-76
2023/07/13 10:24:21;;;;;;;5.80;3.20;;;22.50;99.90;;;;;;4995419;28;20427;-75
2023/07/13 10:26:56;;;;;;;3.87;3.47;;;22.50;99.90;;;;;;4995506;28;20425;-75
2023/07/13 10:29:28;;;;;;;5.20;4.40;;;22.40;99.90;;;;;;4994999;28;20552;-74
2023/07/13 10:31:58;;;;;;;6.03;4.07;;;22.20;99.90;;;;;;4993789;28;20491;-74
2023/07/13 10:34:26;;;;;;;6.87;4.23;;;22.00;99.90;;;;;;4995053;28;20437;-74
2023/07/13 10:36:55;;;;;;;4.63;3.90;;;21.90;99.90;;;;;;4995135;28;20443;-74
2023/07/13 10:39:27;;;;;;;4.67;3.50;;;21.80;99.90;;;;;;4994942;28;20465;-74
2023/07/13 10:42:01;;;;;;;4.10;2.87;;;21.70;99.90;;;;;;4995780;28;20422;-74
2023/07/13 10:44:32;;;;;;;5.23;2.83;;;21.60;99.90;;;;;;4994716;28;20431;-74
2023/07/13 10:47:06;;;;;;;3.43;2.60;;;21.50;99.90;;;;;;4993874;28;20425;-74
2023/07/13 10:49:36;;;;;;;2.93;2.70;;;21.40;99.90;;;;;;4993774;28;20543;-73
2023/07/13 10:52:05;;;;;;;3.07;2.77;;;21.30;99.90;;;;;;4992546;28;20451;-73
2023/07/13 10:54:35;;;;;;;5.10;3.50;;;21.30;99.90;;;;;;4994000;28;20476;-74
2023/07/13 10:57:17;;;;;;;5.27;4.33;;;21.30;99.90;;;;;;4992502;28;20902;-74
2023/07/13 10:59:48;;;;;;;4.03;3.73;;;21.20;99.90;;;;;;4993891;28;20805;-74
2023/07/13 11:02:26;;;;;;;5.57;3.57;;;21.10;99.90;;;;;;4992547;28;20464;-74
2023/07/13 11:04:57;;;;;;;4.20;3.80;;;21.00;99.90;;;;;;4994036;28;20460;-74
2023/07/13 11:07:27;;;;;;;4.50;3.17;;;21.00;99.90;;;;;;4993930;28;20433;-74
2023/07/13 11:09:57;;;;;;;5.37;3.43;;;20.90;99.90;;;;;;4992409;28;20488;-74
2023/07/13 11:12:45;;;;;;;4.30;3.60;;;20.70;99.90;;;;;;4994117;28;20460;-74
2023/07/13 11:15:14;;;;;;;4.30;3.90;;;20.60;99.90;;;;;;4992222;28;20954;-74
2023/07/13 11:17:51;;;;;;;5.70;3.80;;;20.50;99.90;;;;;;4993559;28;20544;-74
2023/07/13 11:20:39;;;;;;;4.43;3.83;;;20.50;99.90;;;;;;4993833;28;20515;-74
2023/07/13 11:23:17;;;;;;;5.50;3.60;;;20.40;99.90;;;;;;4994634;28;20444;-74
2023/07/13 11:25:45;;;;;;;3.60;3.30;;;20.40;99.90;;;;;;4997612;28;20495;-74
2023/07/13 11:28:18;;;;;;;2.93;2.30;;;20.30;99.90;;;;;;4997248;28;20510;-74
2023/07/13 11:30:49;;;;;;;2.40;1.50;;;20.20;99.90;;;;;;4998062;28;20897;-72
2023/07/13 11:33:22;;;;;;;2.60;2.00;;;20.10;99.90;;;;;;4997570;28;20417;-72
2023/07/13 11:35:58;;;;;;;2.20;1.93;;;19.90;99.90;;;;;;4997452;28;20824;-72
2023/07/13 11:38:32;;;;;;;3.00;2.20;;;19.80;99.90;;;;;;4997918;28;20508;-72
2023/07/13 11:41:04;;;;;;;1.90;1.70;;;19.60;99.90;;;;;;4997502;28;20515;-72
2023/07/13 11:43:33;;;;;;;2.00;1.70;;;19.50;99.90;;;;;;4997175;28;20467;-72
2023/07/13 11:46:16;;;;;;;2.87;1.80;;;19.40;99.90;;;;;;4996856;28;20567;-72
2023/07/13 11:48:47;;;;;;;2.17;1.93;;;19.30;99.90;;;;;;4996769;28;20886;-72
2023/07/13 11:51:22;;;;;;;2.37;1.60;;;19.10;99.90;;;;;;4996912;28;20509;-72
2023/07/13 11:53:52;;;;;;;2.40;2.20;;;19.00;99.90;;;;;;4997409;28;20451;-72
2023/07/13 11:56:25;;;;;;;3.90;2.53;;;18.80;99.90;;;;;;4997017;28;20879;-73
2023/07/13 11:58:56;;;;;;;3.67;2.40;;;18.60;99.90;;;;;;4995240;28;20459;-72
2023/07/13 12:01:26;;;;;;;4.40;2.67;;;18.50;99.90;;;;;;4996863;28;20452;-72
2023/07/13 12:03:56;;;;;;;3.03;2.30;;;18.40;99.90;;;;;;4996553;28;20464;-72
2023/07/13 12:06:29;;;;;;;2.50;2.13;;;18.30;99.90;;;;;;4995154;28;20556;-72
2023/07/13 12:08:59;;;;;;;3.30;2.53;;;18.20;99.90;;;;;;4995249;28;20982;-72
2023/07/13 12:11:28;;;;;;;2.60;2.20;;;18.10;99.90;;;;;;4996600;28;20464;-71
2023/07/13 12:13:57;;;;;;;2.33;2.13;;;18.10;99.90;;;;;;4996332;28;20444;-71
2023/07/13 12:16:29;;;;;;;2.30;2.10;;;18.00;99.90;;;;;;4996451;28;20445;-71
2023/07/13 12:18:59;;;;;;;2.40;1.90;;;18.00;99.90;;;;;;4996114;28;20483;-71
2023/07/13 12:21:32;;;;;;;2.63;2.40;;;18.00;99.90;;;;;;4995254;28;20491;-71
2023/07/13 12:24:02;;;;;;;1.97;1.77;;;18.00;99.90;;;;;;4995149;28;20444;-72
2023/07/13 12:26:31;;;;;;;2.97;2.30;;;17.90;99.90;;;;;;4996688;28;20556;-71
2023/07/13 12:29:01;;;;;;;2.63;2.00;;;18.00;99.90;;;;;;4996352;28;20495;-71
2023/07/13 12:31:36;;;;;;;2.53;2.00;;;18.00;99.90;;;;;;4996773;28;20421;-71
2023/07/13 12:34:08;;;;;;;2.90;2.27;;;18.00;99.90;;;;;;4994437;28;20491;-71
2023/07/13 12:36:39;;;;;;;3.40;2.10;;;18.10;99.90;;;;;;4994790;28;20468;-71
2023/07/13 12:39:16;;;;;;;2.10;1.77;;;18.10;99.90;;;;;;4996495;28;20962;-71
2023/07/13 12:41:45;;;;;;;3.87;2.10;;;18.30;99.90;;;;;;4995174;28;20876;-72
2023/07/13 12:44:15;;;;;;;2.00;1.80;;;18.40;99.90;;;;;;4994873;28;20449;-71
2023/07/13 12:46:57;;;;;;;4.33;1.53;;;18.50;99.90;;;;;;4996230;28;20906;-71
2023/07/13 12:49:30;;;;;;;2.93;1.80;;;18.60;99.90;;;;;;4995983;28;20461;-70
2023/07/13 12:52:00;;;;;;;2.47;1.97;;;18.60;99.90;;;;;;4995960;28;20429;-71
2023/07/13 12:54:29;;;;;;;2.37;1.63;;;18.70;99.90;;;;;;4996335;28;20910;-71
2023/07/13 12:57:02;;;;;;;4.37;1.83;;;18.70;99.90;;;;;;4995848;28;20439;-71
2023/07/13 12:59:36;;;;;;;2.23;1.60;;;18.80;99.90;;;;;;4995779;28;20456;-71
2023/07/13 13:02:28;;;;;;;2.40;1.80;;;18.80;99.90;;;;;;4995896;28;20436;-71